Time;durP1;ratioP1;P1;durP2;ratioP2;P2;SDS_P1;SDS_P2;PMS_P1;PMS_P2;Temp;Humidity;BMP_temperature;BMP_pressure;BME280_temperature;BME280_humidity;BME280_pressure;Samples;Min_cycle;Max_cycle;Signal;HPM_P1;HPM_P2
2022/11/14 00:02:07;;;;;;;38.38;19.02;;;6.30;99.90;;;;;;5090941;28;20079;-75
2022/11/14 00:04:33;;;;;;;37.22;19.00;;;6.30;99.90;;;;;;5091130;28;20562;-75
2022/11/14 00:06:59;;;;;;;34.13;18.15;;;6.30;99.90;;;;;;5091050;28;20054;-75
2022/11/14 00:09:26;;;;;;;38.75;18.70;;;6.30;99.90;;;;;;5091036;28;20743;-75
2022/11/14 00:11:51;;;;;;;36.58;18.83;;;6.30;99.90;;;;;;5090840;28;20055;-78
2022/11/14 00:14:17;;;;;;;35.13;19.25;;;6.30;99.90;;;;;;5090518;28;20036;-75
2022/11/14 00:16:43;;;;;;;35.00;18.85;;;6.40;99.90;;;;;;5072711;28;20044;-76
2022/11/14 00:19:08;;;;;;;36.55;19.77;;;6.40;99.90;;;;;;5090611;28;20055;-76
2022/11/14 00:21:34;;;;;;;37.13;19.70;;;6.40;99.90;;;;;;5090983;28;20060;-76
2022/11/14 00:23:59;;;;;;;41.03;19.83;;;6.40;99.90;;;;;;5090789;28;20097;-78
2022/11/14 00:26:25;;;;;;;36.70;18.65;;;6.40;99.90;;;;;;5090615;28;20078;-77
2022/11/14 00:28:50;;;;;;;36.78;20.13;;;6.40;99.90;;;;;;5090502;28;20562;-76
2022/11/14 00:31:16;;;;;;;31.70;18.17;;;6.40;99.90;;;;;;5090707;28;20700;-76
2022/11/14 00:33:42;;;;;;;31.55;18.00;;;6.50;99.90;;;;;;5072167;28;20044;-76
2022/11/14 00:36:07;;;;;;;34.20;18.50;;;6.40;99.90;;;;;;5090764;28;20047;-75
2022/11/14 00:38:33;;;;;;;36.30;19.60;;;6.50;99.90;;;;;;5090878;28;20036;-74
2022/11/14 00:40:58;;;;;;;30.98;17.73;;;6.90;99.90;;;;;;5090371;28;20454;-75
2022/11/14 00:43:24;;;;;;;33.83;19.08;;;6.50;99.90;;;;;;5090332;28;20040;-75
2022/11/14 00:45:50;;;;;;;33.88;19.20;;;6.50;99.90;;;;;;5089913;28;20048;-75
2022/11/14 00:48:16;;;;;;;36.88;19.90;;;6.50;99.90;;;;;;5090302;28;20114;-76
2022/11/14 00:50:42;;;;;;;32.65;17.77;;;6.60;99.90;;;;;;5068727;28;20049;-75
2022/11/14 00:53:07;;;;;;;35.20;19.67;;;6.50;99.90;;;;;;5089658;28;20075;-77
2022/11/14 00:55:33;;;;;;;36.65;19.33;;;6.60;99.90;;;;;;5068718;28;20451;-76
2022/11/14 00:57:59;;;;;;;36.00;19.65;;;6.50;99.90;;;;;;5087554;28;20052;-78
2022/11/14 01:00:24;;;;;;;40.20;20.67;;;6.60;99.90;;;;;;5067479;28;20083;-76
2022/11/14 01:02:50;;;;;;;33.63;20.00;;;6.60;99.90;;;;;;5085655;28;20426;-75
2022/11/14 01:05:16;;;;;;;34.10;20.00;;;6.60;99.90;;;;;;5090093;28;20479;-74
2022/11/14 01:07:41;;;;;;;34.38;20.25;;;6.60;99.90;;;;;;5068259;28;20049;-76
2022/11/14 01:10:08;;;;;;;35.30;20.70;;;6.60;99.90;;;;;;5086937;28;20379;-75
2022/11/14 01:12:34;;;;;;;36.95;20.67;;;6.60;99.90;;;;;;5090009;28;20086;-76
2022/11/14 01:14:59;;;;;;;34.95;20.67;;;6.60;99.90;;;;;;5089591;28;20035;-76
2022/11/14 01:17:27;;;;;;;37.80;21.45;;;6.90;99.90;;;;;;5089691;28;20048;-74
2022/11/14 01:19:53;;;;;;;34.55;21.05;;;6.90;99.90;;;;;;5089510;28;20054;-75
2022/11/14 01:22:19;;;;;;;37.53;19.98;;;6.70;99.90;;;;;;5089674;28;20040;-76
2022/11/14 01:24:44;;;;;;;40.25;22.05;;;6.70;99.90;;;;;;5089960;28;20028;-77
2022/11/14 01:27:10;;;;;;;38.92;21.85;;;6.70;99.90;;;;;;5090056;28;20482;-74
2022/11/14 01:29:36;;;;;;;38.30;23.10;;;6.70;99.90;;;;;;5069853;28;20136;-77
2022/11/14 01:32:01;;;;;;;40.15;22.83;;;6.70;99.90;;;;;;5089434;28;20398;-76
2022/11/14 01:34:28;;;;;;;39.30;23.65;;;6.70;99.90;;;;;;5089431;28;20044;-75
2022/11/14 01:36:54;;;;;;;40.45;23.33;;;6.70;99.90;;;;;;5089741;28;20686;-75
2022/11/14 01:39:19;;;;;;;41.47;23.77;;;6.70;99.90;;;;;;5089829;28;20090;-77
2022/11/14 01:41:45;;;;;;;41.65;23.63;;;6.70;99.90;;;;;;5089527;28;20036;-77
2022/11/14 01:44:16;;;;;;;39.60;23.13;;;6.70;99.90;;;;;;5090014;28;20044;-76
2022/11/14 01:46:45;;;;;;;43.13;24.95;;;6.70;99.90;;;;;;5071137;28;20048;-76
2022/11/14 01:49:20;;;;;;;41.55;24.83;;;6.70;99.90;;;;;;5089465;28;20044;-76
2022/11/14 01:51:49;;;;;;;41.03;24.02;;;6.70;99.90;;;;;;5089448;28;20091;-74
2022/11/14 01:54:25;;;;;;;44.78;25.17;;;6.70;99.90;;;;;;5081699;28;20131;-76
2022/11/14 01:56:56;;;;;;;43.70;25.30;;;6.70;99.90;;;;;;5067992;28;20136;-76
2022/11/14 01:59:46;;;;;;;50.35;26.27;;;6.70;99.90;;;;;;5081994;28;20500;-76
2022/11/14 02:02:23;;;;;;;48.90;27.58;;;6.70;99.90;;;;;;5069518;28;20165;-75
2022/11/14 02:04:59;;;;;;;51.30;29.60;;;6.70;99.90;;;;;;5089514;28;20051;-75
2022/11/14 02:07:28;;;;;;;58.45;32.03;;;6.60;99.90;;;;;;5089278;28;20483;-75
2022/11/14 02:09:54;;;;;;;53.00;31.45;;;6.60;99.90;;;;;;5089387;28;20053;-74
2022/11/14 02:12:21;;;;;;;55.70;31.65;;;6.60;99.90;;;;;;5090865;28;20402;-74
2022/11/14 02:14:51;;;;;;;56.33;32.47;;;6.60;99.90;;;;;;5093259;28;20169;-77
2022/11/14 02:17:17;;;;;;;61.30;34.08;;;6.60;99.90;;;;;;5092794;28;20058;-77
2022/11/14 02:19:49;;;;;;;56.17;33.75;;;6.60;99.90;;;;;;5093114;28;20063;-75
2022/11/14 02:22:15;;;;;;;61.10;33.55;;;6.60;99.90;;;;;;5092909;28;20518;-77
2022/11/14 02:24:41;;;;;;;55.60;33.63;;;6.50;99.90;;;;;;5092784;28;20121;-75
2022/11/14 02:27:09;;;;;;;62.67;35.28;;;6.50;99.90;;;;;;5092889;28;20040;-75
2022/11/14 02:29:34;;;;;;;66.22;34.55;;;6.50;99.90;;;;;;5092813;28;20079;-75
2022/11/14 02:32:01;;;;;;;61.05;34.67;;;6.50;99.90;;;;;;5092739;28;20093;-74
2022/11/14 02:34:26;;;;;;;61.10;34.28;;;6.50;99.90;;;;;;5093123;28;20371;-76
2022/11/14 02:36:53;;;;;;;61.15;34.28;;;6.50;99.90;;;;;;5093085;28;20048;-77
2022/11/14 02:39:18;;;;;;;61.67;35.03;;;6.50;99.90;;;;;;5092899;28;20051;-75
2022/11/14 02:41:44;;;;;;;62.63;34.40;;;6.50;99.90;;;;;;5092825;28;20048;-76
2022/11/14 02:44:09;;;;;;;69.28;35.85;;;6.40;99.90;;;;;;5092902;28;20403;-76
2022/11/14 02:46:35;;;;;;;62.38;35.45;;;6.40;99.90;;;;;;5074252;28;20051;-75
2022/11/14 02:49:00;;;;;;;59.63;34.10;;;7.00;99.90;;;;;;5073847;28;20044;-75
2022/11/14 02:51:26;;;;;;;58.58;34.00;;;6.40;99.90;;;;;;5092378;28;20119;-76
2022/11/14 02:53:52;;;;;;;61.80;34.53;;;6.40;99.90;;;;;;5092350;28;20101;-75
2022/11/14 02:56:17;;;;;;;63.45;35.58;;;6.40;99.90;;;;;;5092483;28;20527;-77
2022/11/14 02:58:43;;;;;;;59.80;34.10;;;6.60;99.90;;;;;;5092118;28;20072;-74
2022/11/14 03:01:08;;;;;;;61.85;34.08;;;6.40;99.90;;;;;;5090798;28;20086;-76
2022/11/14 03:03:34;;;;;;;64.13;35.42;;;6.40;99.90;;;;;;5091812;28;20056;-76
2022/11/14 03:06:01;;;;;;;60.30;34.25;;;6.40;99.90;;;;;;5092177;28;20043;-76
2022/11/14 03:08:27;;;;;;;65.72;35.13;;;6.40;99.90;;;;;;5084357;28;20047;-76
2022/11/14 03:10:53;;;;;;;61.78;34.53;;;6.40;99.90;;;;;;5091914;28;20040;-75
2022/11/14 03:13:18;;;;;;;64.75;36.00;;;6.60;99.90;;;;;;5091378;28;20211;-75
2022/11/14 03:15:45;;;;;;;65.63;33.47;;;6.50;99.90;;;;;;5086004;28;20067;-74
2022/11/14 03:18:11;;;;;;;62.47;34.80;;;6.40;99.90;;;;;;5091175;28;20044;-74
2022/11/14 03:20:37;;;;;;;61.67;35.50;;;6.50;99.90;;;;;;5084956;28;20086;-75
2022/11/14 03:23:03;;;;;;;59.13;34.38;;;6.50;99.90;;;;;;5091563;28;20471;-74
2022/11/14 03:25:28;;;;;;;61.92;35.25;;;6.50;99.90;;;;;;5091308;28;20122;-75
2022/11/14 03:27:54;;;;;;;63.25;33.95;;;6.50;99.90;;;;;;5091538;28;20040;-76
2022/11/14 03:30:19;;;;;;;62.65;33.80;;;6.50;99.90;;;;;;5091736;28;20051;-76
2022/11/14 03:32:45;;;;;;;60.03;33.92;;;6.50;99.90;;;;;;5092015;28;20123;-76
2022/11/14 03:35:11;;;;;;;67.03;35.30;;;6.50;99.90;;;;;;5091415;28;20112;-77
2022/11/14 03:37:36;;;;;;;59.65;34.08;;;6.50;99.90;;;;;;5091713;28;20052;-74
2022/11/14 03:40:03;;;;;;;63.53;34.63;;;6.50;99.90;;;;;;5091292;28;20121;-75
2022/11/14 03:42:33;;;;;;;60.22;33.45;;;6.50;99.90;;;;;;5092137;28;20058;-77
2022/11/14 03:44:58;;;;;;;61.28;33.88;;;6.50;99.90;;;;;;5091205;28;20044;-76
2022/11/14 03:47:24;;;;;;;59.15;33.97;;;6.50;99.90;;;;;;5091425;28;20062;-77
2022/11/14 03:49:49;;;;;;;61.13;32.22;;;6.50;99.90;;;;;;5091122;28;20044;-75
2022/11/14 03:52:15;;;;;;;65.72;33.83;;;6.50;99.90;;;;;;5071983;28;20411;-75
2022/11/14 03:54:41;;;;;;;67.97;36.15;;;6.50;99.90;;;;;;5090847;28;20048;-75
2022/11/14 03:57:06;;;;;;;58.83;32.13;;;6.50;99.90;;;;;;5073254;28;20043;-74
2022/11/14 03:59:32;;;;;;;60.00;33.72;;;6.40;99.90;;;;;;5091498;28;20048;-74
2022/11/14 04:01:57;;;;;;;60.92;32.30;;;6.40;99.90;;;;;;5091096;28;20043;-75
2022/11/14 04:04:23;;;;;;;58.08;32.75;;;6.80;99.90;;;;;;5091207;28;20047;-74
2022/11/14 04:06:49;;;;;;;62.40;34.00;;;6.50;99.90;;;;;;5090912;28;20119;-74
2022/11/14 04:09:14;;;;;;;61.50;34.42;;;6.50;99.90;;;;;;5090656;28;20358;-75
2022/11/14 04:11:40;;;;;;;60.53;31.95;;;6.60;99.90;;;;;;5072791;28;20047;-75
2022/11/14 04:14:05;;;;;;;59.22;34.28;;;6.90;99.90;;;;;;5072797;28;20040;-74
2022/11/14 04:16:31;;;;;;;57.35;34.03;;;6.40;99.90;;;;;;5072905;28;20059;-75
2022/11/14 04:18:56;;;;;;;62.90;34.05;;;6.90;99.90;;;;;;5090863;28;20706;-76
2022/11/14 04:21:22;;;;;;;57.97;33.45;;;6.40;99.90;;;;;;5090814;28;20083;-75
2022/11/14 04:23:48;;;;;;;59.05;34.10;;;6.40;99.90;;;;;;5072796;28;20131;-75
2022/11/14 04:26:14;;;;;;;55.92;33.75;;;6.40;99.90;;;;;;5072940;28;20127;-75
2022/11/14 04:28:39;;;;;;;61.13;34.35;;;6.50;99.90;;;;;;5091006;28;20048;-76
2022/11/14 04:31:05;;;;;;;63.15;34.05;;;6.80;99.90;;;;;;5072968;28;20474;-74
2022/11/14 04:33:30;;;;;;;60.53;34.72;;;6.40;99.90;;;;;;5090917;28;20052;-75
2022/11/14 04:35:56;;;;;;;57.55;34.03;;;6.50;99.90;;;;;;5089741;28;20127;-75
2022/11/14 04:38:21;;;;;;;58.65;33.55;;;7.10;99.90;;;;;;5090774;28;20048;-74
2022/11/14 04:40:51;;;;;;;59.20;32.60;;;6.40;99.90;;;;;;5090576;28;20071;-76
2022/11/14 04:43:18;;;;;;;54.65;31.60;;;6.40;99.90;;;;;;5090823;28;20051;-75
2022/11/14 04:45:44;;;;;;;56.75;32.60;;;7.30;99.90;;;;;;5090524;28;20098;-74
2022/11/14 04:48:10;;;;;;;60.88;33.75;;;6.40;99.90;;;;;;5090827;28;20429;-78
2022/11/14 04:50:36;;;;;;;53.03;32.53;;;6.40;99.90;;;;;;5090567;28;20066;-74
2022/11/14 04:53:01;;;;;;;58.72;34.03;;;6.40;99.90;;;;;;5089912;28;20058;-77
2022/11/14 04:55:27;;;;;;;60.60;32.78;;;6.40;99.90;;;;;;5090470;28;20082;-76
2022/11/14 04:57:54;;;;;;;62.35;32.75;;;6.40;99.90;;;;;;5090659;28;20487;-77
2022/11/14 05:00:20;;;;;;;57.40;32.63;;;6.40;99.90;;;;;;5090605;28;20101;-75
2022/11/14 05:02:46;;;;;;;55.45;31.83;;;6.40;99.90;;;;;;5090174;28;20364;-76
2022/11/14 05:05:12;;;;;;;54.58;33.65;;;6.40;99.90;;;;;;5090710;28;20055;-76
2022/11/14 05:07:37;;;;;;;55.33;32.03;;;6.40;99.90;;;;;;5072571;28;20075;-78
2022/11/14 05:10:04;;;;;;;55.33;32.90;;;6.40;99.90;;;;;;5090630;28;20383;-74
2022/11/14 05:12:29;;;;;;;57.92;33.60;;;6.40;99.90;;;;;;5090425;28;20446;-78
2022/11/14 05:14:55;;;;;;;53.30;32.63;;;6.50;99.90;;;;;;5090455;28;20044;-75
2022/11/14 05:17:20;;;;;;;54.72;33.15;;;6.40;99.90;;;;;;5090272;28;20048;-75
2022/11/14 05:19:46;;;;;;;56.55;32.65;;;6.40;99.90;;;;;;5090088;28;20048;-75
2022/11/14 05:22:12;;;;;;;55.65;32.25;;;6.40;99.90;;;;;;5089485;28;20040;-75
2022/11/14 05:24:37;;;;;;;56.58;32.92;;;6.40;99.90;;;;;;5077408;28;20044;-77
2022/11/14 05:27:03;;;;;;;53.03;31.45;;;6.50;99.90;;;;;;5070390;28;20047;-76
2022/11/14 05:29:28;;;;;;;58.60;33.38;;;6.50;99.90;;;;;;5089721;28;20471;-77
2022/11/14 05:31:54;;;;;;;57.15;32.10;;;6.90;99.90;;;;;;5072140;28;20085;-77
2022/11/14 05:34:20;;;;;;;55.30;31.73;;;6.40;99.90;;;;;;5090436;28;20075;-77
2022/11/14 05:36:45;;;;;;;50.30;31.58;;;6.40;99.90;;;;;;5090326;28;20405;-77
2022/11/14 05:39:11;;;;;;;56.28;33.05;;;6.40;99.90;;;;;;5068056;28;20045;-76
2022/11/14 05:41:36;;;;;;;50.65;31.33;;;6.40;99.90;;;;;;5083749;28;20036;-76
2022/11/14 05:44:05;;;;;;;55.03;31.35;;;6.40;99.90;;;;;;5090163;28;20087;-75
2022/11/14 05:46:31;;;;;;;53.25;31.50;;;6.40;99.90;;;;;;5072318;28;20055;-78
2022/11/14 05:48:56;;;;;;;53.30;31.95;;;6.40;99.90;;;;;;5093743;28;20457;-76
2022/11/14 05:51:22;;;;;;;57.10;32.00;;;6.40;99.90;;;;;;5093878;28;20094;-75
2022/11/14 05:53:47;;;;;;;52.20;31.48;;;6.30;99.90;;;;;;5093564;28;20115;-75
2022/11/14 05:56:13;;;;;;;50.65;31.35;;;6.30;99.90;;;;;;5094290;28;20047;-79
2022/11/14 05:58:39;;;;;;;53.38;31.95;;;6.40;99.90;;;;;;5076034;28;20398;-76
2022/11/14 06:01:09;;;;;;;57.03;32.30;;;6.40;99.90;;;;;;5093591;28;20051;-76
2022/11/14 06:03:41;;;;;;;56.80;32.35;;;6.40;99.90;;;;;;5093752;28;20067;-77
2022/11/14 06:06:08;;;;;;;59.28;32.53;;;6.70;99.90;;;;;;5075614;28;20489;-77
2022/11/14 06:08:34;;;;;;;53.83;31.85;;;6.30;99.90;;;;;;5093680;28;20132;-76
2022/11/14 06:11:05;;;;;;;58.78;34.08;;;6.30;99.90;;;;;;5093521;28;20929;-77
2022/11/14 06:13:32;;;;;;;54.05;31.10;;;6.30;99.90;;;;;;5093794;28;20055;-75
2022/11/14 06:16:02;;;;;;;57.05;31.83;;;6.30;99.90;;;;;;5093415;28;20075;-75
2022/11/14 06:18:29;;;;;;;55.38;32.95;;;6.30;99.90;;;;;;5075041;28;20048;-76
2022/11/14 06:20:59;;;;;;;56.13;32.92;;;6.30;99.90;;;;;;5094043;28;20477;-76
2022/11/14 06:23:25;;;;;;;59.70;32.83;;;6.30;99.90;;;;;;5075256;28;20131;-78
2022/11/14 06:25:50;;;;;;;58.17;33.58;;;6.30;99.90;;;;;;5093564;28;20119;-75
2022/11/14 06:28:16;;;;;;;58.05;33.17;;;6.30;99.90;;;;;;5093512;28;20040;-75
2022/11/14 06:30:42;;;;;;;59.53;34.65;;;6.30;99.90;;;;;;5075228;28;20044;-75
2022/11/14 06:33:07;;;;;;;64.57;34.60;;;6.30;99.90;;;;;;5093956;28;20090;-75
2022/11/14 06:35:34;;;;;;;61.88;33.72;;;6.20;99.90;;;;;;5075749;28;20044;-77
2022/11/14 06:37:59;;;;;;;61.53;33.50;;;6.20;99.90;;;;;;5093322;28;20058;-75
2022/11/14 06:40:25;;;;;;;65.70;33.95;;;6.20;99.90;;;;;;5092261;28;20032;-77
2022/11/14 06:42:55;;;;;;;60.90;33.92;;;6.20;99.90;;;;;;5093018;28;20056;-75
2022/11/14 06:45:20;;;;;;;67.75;35.13;;;6.90;99.90;;;;;;5092882;28;20044;-77
2022/11/14 06:47:46;;;;;;;62.92;34.20;;;6.20;99.90;;;;;;5092999;28;20130;-76
2022/11/14 06:50:11;;;;;;;62.35;33.08;;;6.20;99.90;;;;;;5093045;28;20118;-77
2022/11/14 06:52:37;;;;;;;57.20;32.50;;;6.20;99.90;;;;;;5092715;28;20042;-75
2022/11/14 06:55:03;;;;;;;57.53;32.50;;;6.20;99.90;;;;;;5074548;28;20085;-76
2022/11/14 06:57:28;;;;;;;57.33;32.67;;;6.10;99.90;;;;;;5092654;28;20048;-79
2022/11/14 06:59:54;;;;;;;67.68;34.53;;;6.10;99.90;;;;;;5091580;28;20040;-75
2022/11/14 07:02:20;;;;;;;61.95;33.53;;;6.10;99.90;;;;;;5091590;28;20052;-77
2022/11/14 07:04:45;;;;;;;64.38;35.15;;;6.10;99.90;;;;;;5092295;28;20052;-76
2022/11/14 07:07:11;;;;;;;62.53;34.78;;;6.10;99.90;;;;;;5093032;28;20048;-76
2022/11/14 07:09:37;;;;;;;67.45;34.97;;;6.10;99.90;;;;;;5092328;28;20052;-75
2022/11/14 07:12:02;;;;;;;64.80;35.70;;;6.00;99.90;;;;;;5092385;28;20202;-78
2022/11/14 07:14:28;;;;;;;66.55;35.50;;;6.10;99.90;;;;;;5092257;28;20399;-79
2022/11/14 07:16:54;;;;;;;70.15;35.95;;;6.20;99.90;;;;;;5092340;28;20751;-78
2022/11/14 07:19:19;;;;;;;66.55;35.13;;;6.00;99.90;;;;;;5092348;28;20052;-78
2022/11/14 07:21:45;;;;;;;69.78;37.60;;;6.10;99.90;;;;;;5092543;28;20048;-76
2022/11/14 07:24:11;;;;;;;65.80;36.35;;;6.00;99.90;;;;;;5070528;28;20048;-77
2022/11/14 07:26:37;;;;;;;66.38;34.70;;;6.00;99.90;;;;;;5082133;28;20090;-76
2022/11/14 07:29:02;;;;;;;68.65;35.47;;;6.10;99.90;;;;;;5092390;28;20126;-76
2022/11/14 07:31:28;;;;;;;70.53;35.83;;;6.00;99.90;;;;;;5092405;28;20047;-76
2022/11/14 07:33:53;;;;;;;73.10;36.85;;;6.00;99.90;;;;;;5092337;28;20073;-78
2022/11/14 07:36:19;;;;;;;63.22;34.80;;;6.00;99.90;;;;;;5092220;28;20048;-76
2022/11/14 07:38:45;;;;;;;74.07;37.72;;;6.00;99.90;;;;;;5091956;28;20060;-76
2022/11/14 07:41:12;;;;;;;70.60;37.13;;;6.00;99.90;;;;;;5072247;28;20048;-77
2022/11/14 07:43:39;;;;;;;71.30;35.97;;;6.00;99.90;;;;;;5092497;28;20482;-75
2022/11/14 07:46:07;;;;;;;71.88;36.35;;;6.00;99.90;;;;;;5092000;28;20056;-74
2022/11/14 07:48:33;;;;;;;77.38;38.13;;;6.00;99.90;;;;;;5091716;28;20052;-77
2022/11/14 07:50:59;;;;;;;78.28;38.33;;;6.00;99.90;;;;;;5091928;28;20044;-76
2022/11/14 07:53:25;;;;;;;68.00;34.25;;;6.10;99.90;;;;;;5091586;28;20101;-77
2022/11/14 07:55:51;;;;;;;74.68;36.35;;;6.00;99.90;;;;;;5091435;28;20052;-75
2022/11/14 07:58:17;;;;;;;80.55;38.60;;;6.00;99.90;;;;;;5091394;28;20050;-77
2022/11/14 08:00:43;;;;;;;71.00;36.47;;;6.00;99.90;;;;;;5091641;28;20119;-75
2022/11/14 08:03:09;;;;;;;73.82;36.30;;;6.00;99.90;;;;;;5091555;28;20479;-75
2022/11/14 08:05:35;;;;;;;74.30;38.00;;;6.00;99.90;;;;;;5091821;28;20097;-75
2022/11/14 08:08:00;;;;;;;72.88;36.30;;;6.00;99.90;;;;;;5091355;28;20414;-77
2022/11/14 08:10:26;;;;;;;68.63;34.42;;;6.00;99.90;;;;;;5091064;28;20127;-76
2022/11/14 08:13:03;;;;;;;75.32;35.72;;;6.00;99.90;;;;;;5091163;28;20044;-75
2022/11/14 08:15:30;;;;;;;66.35;33.65;;;6.00;99.90;;;;;;5073104;28;20062;-76
2022/11/14 08:17:59;;;;;;;66.07;33.05;;;6.00;99.90;;;;;;5091176;28;20070;-75
2022/11/14 08:20:26;;;;;;;63.65;32.10;;;6.00;99.90;;;;;;5090984;28;20055;-77
2022/11/14 08:22:53;;;;;;;65.90;32.40;;;5.90;99.90;;;;;;5091144;28;20127;-77
2022/11/14 08:25:18;;;;;;;63.53;33.10;;;5.90;99.90;;;;;;5091267;28;20040;-78
2022/11/14 08:27:44;;;;;;;63.97;32.83;;;6.00;99.90;;;;;;5072055;28;20064;-74
2022/11/14 08:30:10;;;;;;;61.95;31.85;;;5.90;99.90;;;;;;5073022;28;20058;-77
2022/11/14 08:32:36;;;;;;;61.75;33.22;;;6.00;99.90;;;;;;5090965;28;20101;-75
2022/11/14 08:35:02;;;;;;;67.30;33.80;;;5.90;99.90;;;;;;5072154;28;20441;-77
2022/11/14 08:37:27;;;;;;;71.95;34.10;;;6.00;99.90;;;;;;5090791;28;20645;-76
2022/11/14 08:39:53;;;;;;;67.25;33.08;;;6.00;99.90;;;;;;5091042;28;20089;-77
2022/11/14 08:42:18;;;;;;;66.72;32.78;;;6.00;99.90;;;;;;5090518;28;20126;-75
2022/11/14 08:44:44;;;;;;;63.83;30.77;;;6.00;99.90;;;;;;5090859;28;20101;-77
2022/11/14 08:47:10;;;;;;;62.58;32.97;;;6.00;99.90;;;;;;5072714;28;20581;-76
2022/11/14 08:49:35;;;;;;;59.90;32.22;;;6.00;99.90;;;;;;5091204;28;20036;-75
2022/11/14 08:52:01;;;;;;;64.63;32.67;;;6.00;99.90;;;;;;5072864;28;20040;-78
2022/11/14 08:54:27;;;;;;;63.75;34.22;;;6.10;99.90;;;;;;5090542;28;20043;-75
2022/11/14 08:56:53;;;;;;;68.07;33.15;;;6.10;99.90;;;;;;5090677;28;20048;-75
2022/11/14 08:59:18;;;;;;;71.47;35.25;;;6.40;99.90;;;;;;5072178;28;20135;-75
2022/11/14 09:01:44;;;;;;;69.55;34.78;;;6.20;99.90;;;;;;5090676;28;20055;-76
2022/11/14 09:04:09;;;;;;;65.05;33.42;;;6.20;99.90;;;;;;5071779;28;20193;-76
2022/11/14 09:06:35;;;;;;;63.00;33.72;;;6.30;99.90;;;;;;5089393;28;20475;-76
2022/11/14 09:09:01;;;;;;;66.93;34.10;;;6.60;99.90;;;;;;5089970;28;20056;-76
2022/11/14 09:11:26;;;;;;;64.47;34.65;;;6.30;99.90;;;;;;5089854;28;20395;-73
2022/11/14 09:13:52;;;;;;;63.80;34.08;;;6.30;99.90;;;;;;5090119;28;20482;-75
2022/11/14 09:16:17;;;;;;;58.65;33.45;;;6.40;99.90;;;;;;5072441;28;20090;-73
2022/11/14 09:18:43;;;;;;;60.42;33.20;;;6.40;99.90;;;;;;5090014;28;20692;-74
2022/11/14 09:21:10;;;;;;;59.78;32.92;;;6.40;99.90;;;;;;5089934;28;20048;-75
2022/11/14 09:23:36;;;;;;;59.40;32.78;;;6.40;99.90;;;;;;5090459;28;20081;-75
2022/11/14 09:26:08;;;;;;;56.80;31.52;;;6.40;99.90;;;;;;5056300;28;20048;-74
2022/11/14 09:28:35;;;;;;;60.58;32.42;;;6.40;99.90;;;;;;5068658;28;20049;-76
2022/11/14 09:31:05;;;;;;;56.50;31.33;;;6.50;99.90;;;;;;5070011;28;20045;-76
2022/11/14 09:33:32;;;;;;;55.00;32.28;;;6.60;99.90;;;;;;5048834;28;20055;-74
2022/11/14 09:35:59;;;;;;;59.92;32.20;;;6.70;99.90;;;;;;5069370;28;20059;-75
2022/11/14 09:38:26;;;;;;;54.70;31.88;;;6.80;99.90;;;;;;5071611;28;20036;-75
2022/11/14 09:41:00;;;;;;;53.58;30.80;;;6.80;99.90;;;;;;5090293;28;20046;-78
2022/11/14 09:43:52;;;;;;;54.53;32.20;;;6.90;99.90;;;;;;5076529;28;20396;-78
2022/11/14 09:46:23;;;;;;;52.03;27.92;;;7.20;99.90;;;;;;5069699;28;20032;-77
2022/11/14 09:48:51;;;;;;;50.97;29.52;;;7.30;99.90;;;;;;5063253;28;20120;-77
2022/11/14 09:51:29;;;;;;;56.75;30.15;;;7.50;99.90;;;;;;5049586;28;20045;-75
2022/11/14 09:54:22;;;;;;;55.38;31.15;;;7.60;99.90;;;;;;5032167;28;20415;-77
2022/11/14 09:56:50;;;;;;;54.13;30.77;;;7.80;99.90;;;;;;5049942;28;20044;-76
2022/11/14 09:59:16;;;;;;;47.63;26.98;;;8.00;99.90;;;;;;5050036;28;20045;-76
2022/11/14 10:02:14;;;;;;;49.22;29.00;;;8.00;99.90;;;;;;5049840;28;20040;-75
2022/11/14 10:05:07;;;;;;;50.50;28.58;;;8.10;99.90;;;;;;4968944;28;20055;-75
2022/11/14 10:07:42;;;;;;;51.63;28.60;;;8.20;99.90;;;;;;4968859;28;20069;-77
2022/11/14 10:10:28;;;;;;;48.83;29.15;;;8.30;99.90;;;;;;4971270;28;20042;-78
2022/11/14 10:13:11;;;;;;;48.90;28.55;;;8.30;99.90;;;;;;4988170;28;20050;-78
2022/11/14 10:15:57;;;;;;;49.10;27.65;;;8.40;99.90;;;;;;4987547;28;20055;-76
2022/11/14 10:18:25;;;;;;;;;;;8.50;99.90;;;;;;4988520;28;20457;-76
2022/11/14 10:21:00;;;;;;;47.33;27.77;;;8.60;99.90;;;;;;5006263;28;19935;-76
2022/11/14 10:23:59;;;;;;;51.33;28.90;;;8.70;99.90;;;;;;5007527;28;20151;-77
2022/11/14 10:26:35;;;;;;;50.00;28.17;;;8.80;99.90;;;;;;5007260;28;20046;-77
2022/11/14 10:29:31;;;;;;;43.97;25.80;;;8.80;99.90;;;;;;4991011;28;20469;-76
2022/11/14 10:32:37;;;;;;;44.65;27.13;;;8.90;99.90;;;;;;5007035;28;20085;-74
2022/11/14 10:35:19;;;;;;;44.45;26.50;;;9.00;99.90;;;;;;5010363;28;20061;-76
2022/11/14 10:37:54;;;;;;;45.80;26.55;;;9.00;99.90;;;;;;5010794;28;20058;-75
2022/11/14 10:40:37;;;;;;;46.78;27.85;;;9.50;99.90;;;;;;5042999;28;20139;-76
2022/11/14 10:43:19;;;;;;;47.40;27.63;;;9.10;99.90;;;;;;5072971;28;20044;-75
2022/11/14 10:45:55;;;;;;;44.95;27.30;;;9.50;99.90;;;;;;5072732;28;20090;-76
2022/11/14 10:48:35;;;;;;;42.60;27.08;;;9.40;99.90;;;;;;5071352;28;20063;-76
2022/11/14 10:51:17;;;;;;;45.60;27.20;;;9.30;99.90;;;;;;5071824;28;20048;-75
2022/11/14 10:53:49;;;;;;;43.42;27.50;;;9.50;99.90;;;;;;5060658;28;20045;-77
2022/11/14 10:56:15;;;;;;;42.30;26.30;;;9.50;99.90;;;;;;5072375;28;20056;-77
2022/11/14 10:58:41;;;;;;;46.42;27.52;;;9.60;99.90;;;;;;5072271;28;20079;-77
2022/11/14 11:01:31;;;;;;;43.80;25.58;;;9.70;99.90;;;;;;5072226;28;20037;-79
2022/11/14 11:03:57;;;;;;;41.92;26.58;;;9.70;99.90;;;;;;5069466;28;20124;-78
2022/11/14 11:06:27;;;;;;;42.53;26.33;;;9.70;99.90;;;;;;5053153;28;20136;-77
2022/11/14 11:11:40;;;;;;;42.93;26.13;;;9.80;99.90;;;;;;5052323;28;20084;-78
2022/11/14 11:14:16;;;;;;;37.38;25.23;;;9.70;99.90;;;;;;5052343;28;20504;-77
2022/11/14 11:16:45;;;;;;;40.88;24.65;;;9.70;99.90;;;;;;5060632;28;20050;-76
2022/11/14 11:19:22;;;;;;;41.45;26.88;;;9.70;99.90;;;;;;5062449;28;20040;-76
2022/11/14 11:21:50;;;;;;;39.75;25.35;;;9.80;99.90;;;;;;5072399;28;20056;-77
2022/11/14 11:24:36;;;;;;;41.38;26.38;;;10.20;99.90;;;;;;5072091;28;20062;-76
2022/11/14 11:27:22;;;;;;;39.38;24.70;;;9.80;99.90;;;;;;5083152;28;20055;-77
2022/11/14 11:30:22;;;;;;;41.03;25.33;;;9.80;99.90;;;;;;5092584;28;20055;-76
2022/11/14 11:32:47;;;;;;;38.88;24.85;;;9.80;99.90;;;;;;5091733;28;20083;-76
2022/11/14 11:35:15;;;;;;;37.75;23.77;;;9.70;99.90;;;;;;5092268;28;20086;-77
2022/11/14 11:37:53;;;;;;;40.45;25.45;;;9.70;99.90;;;;;;5092261;28;20061;-76
2022/11/14 11:40:22;;;;;;;39.90;25.05;;;9.80;99.90;;;;;;5092000;28;20054;-76
2022/11/14 11:42:59;;;;;;;45.47;27.30;;;9.80;99.90;;;;;;5074126;28;20483;-77
2022/11/14 11:45:26;;;;;;;38.65;25.00;;;9.90;99.90;;;;;;5091562;28;20048;-77
2022/11/14 11:48:07;;;;;;;38.88;24.67;;;10.00;99.90;;;;;;5091544;28;20073;-74
2022/11/14 11:50:33;;;;;;;37.22;24.25;;;10.10;99.90;;;;;;5091269;28;20055;-77
2022/11/14 11:53:16;;;;;;;37.75;24.40;;;10.20;99.90;;;;;;5090496;28;20051;-77
2022/11/14 11:56:00;;;;;;;39.05;24.63;;;10.30;99.90;;;;;;5092136;28;20054;-77
2022/11/14 11:58:43;;;;;;;39.47;24.55;;;10.40;99.90;;;;;;5091761;28;20051;-77
2022/11/14 12:01:13;;;;;;;38.92;24.90;;;10.40;99.90;;;;;;5091963;28;20173;-78
2022/11/14 12:03:50;;;;;;;39.85;24.75;;;10.40;99.90;;;;;;5091361;28;20044;-76
2022/11/14 12:06:26;;;;;;;37.70;24.75;;;10.40;99.90;;;;;;5091414;28;20162;-79
2022/11/14 12:09:00;;;;;;;37.70;24.20;;;10.40;99.90;;;;;;5091491;28;20083;-77
2022/11/14 12:11:29;;;;;;;36.33;23.60;;;10.50;99.90;;;;;;5091535;28;20051;-77
2022/11/14 12:14:05;;;;;;;35.78;23.40;;;10.50;99.90;;;;;;5091535;28;20105;-77
2022/11/14 12:16:53;;;;;;;36.97;23.77;;;10.70;99.90;;;;;;5091342;28;20056;-76
2022/11/14 12:19:51;;;;;;;32.72;22.67;;;10.80;99.90;;;;;;5090794;28;20052;-78
2022/11/14 12:22:17;;;;;;;33.00;22.48;;;10.80;99.90;;;;;;5087397;28;20114;-78
2022/11/14 12:24:45;;;;;;;35.08;23.20;;;11.00;99.90;;;;;;5070966;28;20080;-78
2022/11/14 12:27:29;;;;;;;37.78;23.27;;;11.00;99.90;;;;;;5073425;28;20059;-76
2022/11/14 12:30:01;;;;;;;36.97;22.97;;;11.10;99.90;;;;;;5091070;28;20525;-78
2022/11/14 12:32:56;;;;;;;36.58;23.33;;;11.30;99.90;;;;;;5091506;28;20044;-77
2022/11/14 12:35:31;;;;;;;36.80;24.05;;;11.30;99.90;;;;;;5089690;28;20052;-78
2022/11/14 12:37:58;;;;;;;37.72;24.02;;;11.20;99.90;;;;;;5091111;28;20127;-76
2022/11/14 12:40:40;;;;;;;34.42;24.20;;;11.40;99.90;;;;;;5072753;28;20499;-77
2022/11/14 12:43:37;;;;;;;36.90;23.80;;;11.40;99.90;;;;;;5090965;28;20048;-78
2022/11/14 12:46:08;;;;;;;35.92;22.85;;;11.50;99.90;;;;;;5090870;28;20148;-77
2022/11/14 12:48:39;;;;;;;35.55;23.85;;;11.60;99.90;;;;;;5090647;28;20376;-79